Time;durP1;ratioP1;P1;durP2;ratioP2;P2;SDS_P1;SDS_P2;PMS_P1;PMS_P2;Temp;Humidity;BMP_temperature;BMP_pressure;BME280_temperature;BME280_humidity;BME280_pressure;Samples;Min_cycle;Max_cycle;Signal;HPM_P1;HPM_P2
2022/09/05 00:01:24;;;;;;;;;;;21.60;99.90;;;22.10;53.46;101712.19;5113809;28;20039;-67
2022/09/05 00:04:06;;;;;;;8.50;5.32;;;21.70;99.90;;;22.12;53.42;101718.41;5113843;28;19965;-67
2022/09/05 00:07:04;;;;;;;7.50;5.55;;;21.70;99.90;;;22.12;53.83;101716.59;5114031;28;20058;-67
2022/09/05 00:09:59;;;;;;;9.75;5.55;;;21.70;99.90;;;22.16;53.18;101715.50;5112721;28;20075;-67
2022/09/05 00:12:30;;;;;;;9.95;5.43;;;21.70;99.90;;;22.18;53.47;101710.94;5113554;28;20365;-67
2022/09/05 00:15:19;;;;;;;12.02;5.82;;;21.70;99.90;;;22.24;53.22;101715.22;5112677;28;20047;-67
2022/09/05 00:18:12;;;;;;;10.52;5.65;;;21.80;99.90;;;22.28;53.18;101712.34;5113648;28;20066;-67
2022/09/05 00:21:14;;;;;;;6.13;4.75;;;21.80;99.90;;;22.26;53.14;101707.97;5113513;28;20096;-67
2022/09/05 00:24:31;;;;;;;7.43;5.45;;;21.90;99.90;;;22.25;53.15;101708.88;5113599;28;20058;-67
2022/09/05 00:27:28;;;;;;;8.80;5.43;;;21.80;99.90;;;22.31;53.10;101706.84;5113504;28;20046;-67
2022/09/05 00:30:10;;;;;;;7.97;5.40;;;21.90;99.90;;;22.35;52.69;101702.19;5113376;28;20108;-67
2022/09/05 00:33:26;;;;;;;9.38;4.90;;;21.90;99.90;;;22.39;52.70;101709.22;5113510;28;20051;-67
2022/09/05 00:36:31;;;;;;;7.10;5.20;;;22.00;99.90;;;22.33;52.54;101693.28;5111943;28;20504;-67
2022/09/05 00:39:04;;;;;;;7.90;5.07;;;21.90;99.90;;;22.46;52.34;101705.34;5030723;28;20140;-67
2022/09/05 00:41:32;;;;;;;6.80;5.25;;;22.00;99.90;;;22.43;52.42;101694.69;5101829;28;20089;-67
2022/09/05 00:44:03;;;;;;;5.70;5.00;;;22.00;99.90;;;22.50;52.40;101692.59;5112891;28;20093;-67
2022/09/05 00:46:35;;;;;;;8.50;5.07;;;22.00;99.90;;;22.31;52.82;101690.66;5113705;28;20448;-67
2022/09/05 00:49:16;;;;;;;8.70;5.28;;;22.00;99.90;;;22.01;53.15;101691.00;5113129;28;20122;-67
2022/09/05 00:51:53;;;;;;;5.90;4.90;;;21.80;99.90;;;22.14;53.47;101686.88;5113242;28;20208;-67
2022/09/05 00:54:46;;;;;;;8.98;5.50;;;21.80;99.90;;;21.91;53.79;101668.88;5113189;28;20055;-67
2022/09/05 00:57:44;;;;;;;6.45;5.80;;;21.60;99.90;;;21.83;54.09;101656.66;5113097;28;20126;-67
2022/09/05 01:00:18;;;;;;;11.98;5.68;;;21.60;99.90;;;21.91;54.08;101654.56;5113112;28;20071;-67
2022/09/05 01:03:15;;;;;;;8.00;5.50;;;21.60;99.90;;;21.98;54.19;101683.88;5113046;28;20055;-67
2022/09/05 01:06:18;;;;;;;8.38;5.82;;;21.60;99.90;;;22.00;54.00;101670.34;5105097;28;20050;-67
2022/09/05 01:09:17;;;;;;;7.28;5.20;;;21.70;99.90;;;21.44;53.82;101591.69;5112798;28;20155;-67
2022/09/05 01:12:00;;;;;;;6.83;5.33;;;21.70;99.90;;;22.33;53.87;101687.91;5113137;28;20040;-67
2022/09/05 01:14:49;;;;;;;8.90;5.28;;;21.80;99.90;;;22.32;53.36;101689.72;5114830;28;20043;-67
2022/09/05 01:17:35;;;;;;;9.32;6.22;;;21.90;99.90;;;22.37;53.62;101685.03;5117152;28;20470;-67
2022/09/05 01:20:16;;;;;;;6.55;5.65;;;22.00;99.90;;;22.21;53.62;101670.41;5117174;28;20441;-67
2022/09/05 01:23:07;;;;;;;8.73;5.90;;;21.90;99.90;;;22.35;53.73;101686.91;5117056;28;20051;-67
2022/09/05 01:26:01;;;;;;;8.23;5.20;;;21.90;99.90;;;22.47;53.78;101685.53;5116975;28;20116;-67
2022/09/05 01:28:39;;;;;;;7.60;5.40;;;22.00;99.90;;;22.51;53.61;101687.19;5116897;28;20493;-67
2022/09/05 01:31:37;;;;;;;6.85;5.47;;;22.10;99.90;;;22.40;53.99;101687.59;5116907;28;20420;-68
2022/09/05 01:34:18;;;;;;;6.15;5.55;;;22.00;99.90;;;22.51;54.06;101678.19;5115470;28;20067;-67
2022/09/05 01:37:07;;;;;;;10.50;6.50;;;22.10;99.90;;;22.47;53.94;101679.25;5116739;28;20058;-67
2022/09/05 01:40:09;;;;;;;6.82;5.60;;;22.10;99.90;;;22.48;54.40;101664.81;5116761;28;20130;-67
2022/09/05 01:43:01;;;;;;;6.75;5.85;;;22.10;99.90;;;22.45;54.30;101669.41;5116726;28;20778;-67
2022/09/05 01:45:47;;;;;;;8.90;5.47;;;22.10;99.90;;;22.58;54.36;101672.50;5116677;27;20079;-67
2022/09/05 01:48:34;;;;;;;7.47;5.32;;;22.10;99.90;;;22.59;54.75;101678.81;5116520;28;20110;-67
2022/09/05 01:51:21;;;;;;;8.35;5.90;;;22.10;99.90;;;22.60;54.80;101677.84;5116468;28;20047;-67
2022/09/05 01:54:15;;;;;;;7.50;5.80;;;22.10;99.90;;;22.58;54.86;101671.63;5116506;28;20497;-67
2022/09/05 01:57:08;;;;;;;9.07;5.93;;;22.10;99.90;;;22.43;54.49;101665.03;5116429;28;20043;-67
2022/09/05 01:59:48;;;;;;;7.70;5.55;;;22.20;99.90;;;22.60;54.64;101680.53;5116440;28;20130;-67
2022/09/05 02:02:23;;;;;;;;;;;22.20;99.90;;;22.61;54.98;101682.31;5115691;28;20043;-67
2022/09/05 02:05:29;;;;;;;7.75;5.60;;;22.20;99.90;;;22.62;54.93;101681.34;5115384;28;20323;-67
2022/09/05 02:08:48;;;;;;;7.10;6.28;;;22.20;99.90;;;22.57;55.04;101680.69;5116249;28;20051;-68
2022/09/05 02:11:16;;;;;;;8.02;6.07;;;22.10;99.90;;;22.55;55.10;101675.28;5116152;28;20104;-67
2022/09/05 02:14:11;;;;;;;7.28;5.80;;;22.10;99.90;;;22.42;55.05;101649.78;5116136;28;20040;-68
2022/09/05 02:16:55;;;;;;;8.40;6.38;;;22.10;99.90;;;22.61;55.26;101674.22;5116226;28;20070;-67
2022/09/05 02:19:30;;;;;;;12.15;6.30;;;22.10;99.90;;;22.55;55.52;101666.34;5116115;28;20064;-67
2022/09/05 02:22:09;;;;;;;8.65;6.15;;;22.20;99.90;;;22.54;55.55;101667.28;5115936;28;20078;-67
2022/09/05 02:24:42;;;;;;;8.95;6.35;;;22.10;99.90;;;21.90;55.56;101561.16;5114813;28;20047;-67
2022/09/05 02:27:28;;;;;;;9.18;6.07;;;22.10;99.90;;;22.56;55.76;101678.88;5114720;28;20086;-67
2022/09/05 02:30:19;;;;;;;8.25;6.07;;;22.10;99.90;;;22.50;55.75;101671.91;5115614;28;20059;-67
2022/09/05 02:32:58;;;;;;;8.63;6.07;;;22.10;99.90;;;22.48;55.90;101672.91;5115777;28;20112;-67
2022/09/05 02:35:39;;;;;;;10.48;6.75;;;22.10;99.90;;;22.51;56.02;101681.78;5115679;28;20044;-67
2022/09/05 02:38:10;;;;;;;;;;;22.10;99.90;;;22.44;56.01;101681.13;5114778;28;20412;-67
2022/09/05 02:41:05;;;;;;;11.10;6.53;;;22.10;99.90;;;22.47;56.18;101680.16;5116114;28;20011;-67
2022/09/05 02:44:00;;;;;;;8.90;5.97;;;22.10;99.90;;;22.26;56.48;101676.47;5115571;28;20124;-67
2022/09/05 02:46:57;;;;;;;8.15;6.47;;;21.90;99.90;;;22.25;57.00;101684.63;5115325;28;20127;-67
2022/09/05 02:49:43;;;;;;;11.55;6.60;;;21.90;99.90;;;22.17;57.07;101687.63;5115349;28;20492;-67
2022/09/05 02:52:37;;;;;;;8.20;5.90;;;21.70;99.90;;;22.22;57.37;101690.16;5115344;28;20036;-67
2022/09/05 02:55:36;;;;;;;7.55;6.30;;;21.70;99.90;;;22.17;57.62;101686.72;5115334;27;20400;-68
2022/09/05 02:58:41;;;;;;;7.57;6.43;;;21.70;99.90;;;22.14;57.55;101676.94;5115244;28;20090;-67
2022/09/05 03:02:01;;;;;;;7.70;6.55;;;21.70;99.90;;;22.23;57.49;101687.38;5115077;28;20043;-67
2022/09/05 03:04:54;;;;;;;9.00;6.45;;;21.70;99.90;;;22.23;57.49;101686.50;5115417;28;20135;-67
2022/09/05 03:07:57;;;;;;;11.25;6.55;;;21.70;99.90;;;22.17;58.04;101682.22;5115062;28;20393;-68
2022/09/05 03:11:10;;;;;;;9.05;6.28;;;21.70;99.90;;;21.97;58.21;101654.31;5115011;28;20123;-67
2022/09/05 03:14:42;;;;;;;7.43;6.40;;;21.60;99.90;;;22.03;58.12;101683.69;5075218;28;20044;-67
2022/09/05 03:17:56;;;;;;;7.30;6.60;;;21.60;99.90;;;21.98;57.83;101667.72;5089115;28;20043;-67
2022/09/05 03:21:25;;;;;;;7.50;6.35;;;21.50;99.90;;;21.97;58.15;101679.41;5099653;28;20079;-67
2022/09/05 03:24:44;;;;;;;8.00;6.38;;;21.50;99.90;;;22.13;57.79;101712.06;5114795;28;20047;-67
2022/09/05 03:28:25;;;;;;;11.38;6.50;;;21.60;99.90;;;22.19;58.04;101672.28;5086808;28;20130;-67
2022/09/05 03:31:20;;;;;;;;;;;21.70;99.90;;;22.22;58.00;101674.84;5113592;28;20104;-67
2022/09/05 03:34:38;;;;;;;7.32;6.60;;;21.80;99.90;;;22.25;57.73;101668.44;5113262;28;19967;-67
2022/09/05 03:37:48;;;;;;;6.93;6.18;;;21.80;99.90;;;22.18;58.36;101670.50;5114253;28;20122;-67
2022/09/05 03:40:43;;;;;;;8.63;6.50;;;21.70;99.90;;;22.16;58.37;101663.44;5113231;28;20074;-67
2022/09/05 03:43:46;;;;;;;8.88;7.00;;;21.70;99.90;;;22.19;58.53;101666.88;5113038;28;20332;-67
2022/09/05 03:46:30;;;;;;;10.32;7.13;;;21.70;99.90;;;22.11;58.89;101649.25;5114428;28;20112;-67
2022/09/05 03:49:18;;;;;;;7.80;6.72;;;21.70;99.90;;;22.17;58.96;101675.97;5114284;28;20108;-67
2022/09/05 03:52:15;;;;;;;8.52;7.05;;;21.70;99.90;;;22.05;59.15;101669.22;5114058;28;20052;-67
2022/09/05 03:55:33;;;;;;;8.13;6.80;;;21.70;99.90;;;21.84;59.41;101636.84;5112963;28;20130;-67
2022/09/05 03:58:51;;;;;;;10.95;7.53;;;21.60;99.90;;;21.78;59.91;101667.56;5113997;28;20039;-67
2022/09/05 04:01:34;;;;;;;11.38;7.90;;;21.50;99.90;;;21.68;60.42;101666.13;5113879;28;20496;-68
2022/09/05 04:04:30;;;;;;;9.43;7.82;;;21.40;99.90;;;21.75;60.43;101667.69;5113939;28;20067;-67
2022/09/05 04:07:24;;;;;;;10.07;7.78;;;21.40;99.90;;;21.70;60.88;101666.09;5113870;28;20040;-67
2022/09/05 04:10:27;;;;;;;11.40;7.57;;;21.30;99.90;;;21.61;61.05;101658.34;5113673;28;20497;-68
2022/09/05 04:13:02;;;;;;;10.77;7.43;;;21.20;99.90;;;21.61;61.19;101656.53;5113739;28;20043;-68
2022/09/05 04:15:38;;;;;;;11.85;7.82;;;21.30;99.90;;;21.60;61.37;101662.88;5113902;28;20040;-68
2022/09/05 04:18:23;;;;;;;14.15;8.88;;;21.20;99.90;;;21.49;61.36;101659.69;5113770;28;20096;-67
2022/09/05 04:21:06;;;;;;;12.55;8.38;;;21.20;99.90;;;21.54;61.63;101663.09;5113589;28;20039;-68
2022/09/05 04:23:48;;;;;;;9.70;8.02;;;21.10;99.90;;;21.59;61.69;101655.72;5113851;28;20096;-67
2022/09/05 04:26:45;;;;;;;14.30;8.82;;;21.10;99.90;;;21.56;61.89;101656.69;5113475;28;20073;-67
2022/09/05 04:29:24;;;;;;;12.95;7.88;;;21.20;99.90;;;21.56;61.66;101669.31;5113505;28;20668;-67
2022/09/05 04:32:02;;;;;;;11.00;8.77;;;21.20;99.90;;;21.58;61.68;101661.16;5113576;28;20055;-67
2022/09/05 04:35:04;;;;;;;11.38;8.73;;;21.20;99.90;;;21.47;62.01;101658.84;5113490;28;20035;-68
2022/09/05 04:37:41;;;;;;;10.30;8.35;;;21.10;99.90;;;21.36;62.10;101642.22;5113210;28;20043;-67
2022/09/05 04:40:37;;;;;;;11.30;7.93;;;21.00;99.90;;;21.23;62.50;101662.44;5113825;28;20108;-67
2022/09/05 04:43:10;;;;;;;12.85;8.80;;;20.90;99.90;;;21.31;62.67;101671.13;5113277;28;20039;-67
2022/09/05 04:45:45;;;;;;;11.52;9.40;;;20.90;99.90;;;21.24;62.58;101670.47;5112948;28;20473;-67
2022/09/05 04:48:19;;;;;;;11.18;9.52;;;20.90;99.90;;;21.11;62.94;101668.25;5112821;28;20408;-67
2022/09/05 04:51:21;;;;;;;13.00;8.38;;;20.80;99.90;;;21.18;63.05;101676.06;5113158;28;20139;-67
2022/09/05 04:54:14;;;;;;;10.88;8.52;;;20.80;99.90;;;21.26;63.17;101673.97;5113136;28;20043;-67
2022/09/05 04:56:46;;;;;;;12.47;8.03;;;20.80;99.90;;;21.29;63.16;101673.00;5113357;28;20386;-67
2022/09/05 04:59:21;;;;;;;9.45;8.20;;;20.90;99.90;;;21.22;62.96;101676.81;5111935;28;20142;-67
2022/09/05 05:02:21;;;;;;;8.88;7.95;;;20.90;99.90;;;21.30;63.06;101672.94;5113331;28;20047;-67
2022/09/05 05:05:18;;;;;;;9.20;8.20;;;20.90;99.90;;;21.31;63.03;101687.28;5113244;28;20486;-67
2022/09/05 05:08:16;;;;;;;11.00;8.70;;;20.90;99.90;;;21.12;63.28;101667.31;5112987;28;20044;-67
2022/09/05 05:11:11;;;;;;;11.27;8.30;;;20.80;99.90;;;21.04;63.59;101669.41;5113298;28;20127;-67
2022/09/05 05:14:06;;;;;;;11.13;8.20;;;20.70;99.90;;;21.11;63.57;101673.63;5112999;28;20063;-67
2022/09/05 05:17:00;;;;;;;12.70;8.15;;;20.70;99.90;;;21.10;63.46;101675.44;5112824;28;20054;-67
2022/09/05 05:19:57;;;;;;;11.35;8.13;;;20.70;99.90;;;21.00;63.72;101682.03;5112776;28;20048;-67
2022/09/05 05:22:59;;;;;;;13.68;8.13;;;20.70;99.90;;;21.02;63.71;101680.22;5112932;28;20106;-67
2022/09/05 05:25:47;;;;;;;8.80;7.20;;;20.60;99.90;;;21.01;63.77;101677.56;5113050;28;20039;-67
2022/09/05 05:28:25;;;;;;;11.60;8.13;;;20.60;99.90;;;21.01;63.68;101656.06;5112914;28;20096;-67
2022/09/05 05:30:55;;;;;;;9.65;7.78;;;20.70;99.90;;;21.17;63.34;101665.34;5112678;28;20039;-67
2022/09/05 05:33:35;;;;;;;14.77;8.13;;;20.80;99.90;;;21.33;63.08;101683.59;5112801;28;20050;-67
2022/09/05 05:36:09;;;;;;;12.15;8.32;;;20.90;99.90;;;21.45;62.88;101684.97;5112690;28;20048;-67
2022/09/05 05:38:46;;;;;;;15.93;9.25;;;21.00;99.90;;;21.45;62.91;101683.16;5112621;28;20093;-67
2022/09/05 05:41:23;;;;;;;13.80;8.55;;;21.00;99.90;;;21.50;62.93;101678.47;5112600;28;20077;-67
2022/09/05 05:43:52;;;;;;;11.65;8.32;;;21.10;99.90;;;21.64;62.75;101682.50;5111109;28;20476;-67
2022/09/05 05:46:37;;;;;;;11.32;7.78;;;21.20;99.90;;;21.67;62.60;101685.06;5111200;28;20423;-67
2022/09/05 05:49:33;;;;;;;9.43;8.13;;;21.30;99.90;;;21.48;62.87;101685.75;5111383;28;20104;-67
2022/09/05 05:52:39;;;;;;;12.32;8.13;;;21.10;99.90;;;21.47;63.07;101683.97;5111203;28;20082;-67
2022/09/05 05:55:31;;;;;;;12.68;8.60;;;21.00;99.90;;;21.18;63.32;101632.13;5108931;28;20093;-67
2022/09/05 05:58:43;;;;;;;16.15;8.23;;;21.00;99.90;;;21.42;63.64;101695.84;5112441;28;20048;-67
2022/09/05 06:02:06;;;;;;;17.23;8.43;;;21.00;99.90;;;21.38;63.97;101694.19;5116077;28;20074;-67
2022/09/05 06:05:17;;;;;;;12.57;7.80;;;20.80;99.90;;;21.32;63.80;101697.09;5096919;28;20099;-67
2022/09/05 06:08:03;;;;;;;11.60;7.65;;;20.80;99.90;;;21.41;63.93;101718.31;5116179;28;20404;-67
2022/09/05 06:11:17;;;;;;;13.18;7.53;;;20.80;99.90;;;21.37;64.00;101704.06;5116021;28;20047;-67
2022/09/05 06:14:58;;;;;;;12.43;7.95;;;20.80;99.90;;;21.25;63.81;101674.03;5116048;28;20500;-67
2022/09/05 06:18:20;;;;;;;8.77;7.35;;;20.90;99.90;;;21.26;64.39;101694.63;5114861;28;20542;-67
2022/09/05 06:21:30;;;;;;;12.70;7.10;;;20.80;99.90;;;21.46;64.08;101702.88;5112888;28;20086;-67
2022/09/05 06:25:19;;;;;;;15.85;7.30;;;20.90;99.90;;;21.56;63.89;101690.84;5114770;28;20071;-67
2022/09/05 06:28:11;;;;;;;11.70;7.25;;;21.00;99.90;;;21.65;64.25;101687.81;5115870;28;20043;-67
2022/09/05 06:31:02;;;;;;;11.65;7.63;;;21.10;99.90;;;22.00;63.51;101708.97;5114532;28;20143;-67
2022/09/05 06:34:08;;;;;;;17.98;7.35;;;21.40;99.90;;;21.83;61.52;101613.56;5115547;28;20104;-67
2022/09/05 06:37:06;;;;;;;14.40;7.05;;;21.80;99.90;;;22.45;60.99;101698.22;5115743;28;20400;-67
2022/09/05 06:40:03;;;;;;;9.70;7.32;;;22.20;99.90;;;22.99;61.04;101711.28;5115457;28;20544;-67
2022/09/05 06:42:44;;;;;;;11.38;7.10;;;22.40;99.90;;;23.46;60.20;101728.16;5115454;28;20061;-67
2022/09/05 06:45:31;;;;;;;9.15;6.72;;;22.90;99.90;;;23.37;59.50;101709.63;5115409;28;20043;-67
2022/09/05 06:48:11;;;;;;;12.32;7.43;;;23.10;99.90;;;23.65;59.61;101732.69;5115554;27;20074;-67
2022/09/05 06:51:15;;;;;;;11.23;7.50;;;23.20;99.90;;;23.50;59.23;101732.50;5114117;28;20413;-67
2022/09/05 06:54:02;;;;;;;9.55;6.80;;;23.00;99.90;;;23.17;59.47;101730.25;5115283;28;20450;-67
2022/09/05 06:57:17;;;;;;;11.80;8.27;;;22.70;99.90;;;23.18;59.09;101739.25;5115186;28;20055;-67
2022/09/05 07:00:11;;;;;;;10.10;7.60;;;22.70;99.90;;;23.15;59.34;101747.47;5106212;28;20056;-67
2022/09/05 07:03:17;;;;;;;10.23;6.93;;;22.70;99.90;;;23.18;58.07;101733.84;5115074;28;20075;-67
2022/09/05 07:05:55;;;;;;;9.13;6.70;;;22.70;99.90;;;23.24;57.57;101742.56;5115052;28;20097;-67
2022/09/05 07:08:31;;;;;;;9.35;6.68;;;22.70;99.90;;;23.19;57.96;101738.28;5115014;28;20068;-67
2022/09/05 07:11:09;;;;;;;12.20;7.43;;;22.70;99.90;;;23.23;58.54;101753.41;5114526;28;20040;-67
2022/09/05 07:14:00;;;;;;;7.28;6.35;;;22.70;99.90;;;22.71;57.82;101645.91;5114932;28;20047;-67
2022/09/05 07:16:42;;;;;;;9.45;6.65;;;22.80;99.90;;;23.39;58.42;101745.56;5115092;28;20093;-67
2022/09/05 07:19:25;;;;;;;8.43;6.70;;;22.90;99.90;;;23.72;58.21;101763.88;5113507;28;20138;-67
2022/09/05 07:22:31;;;;;;;15.10;6.03;;;23.10;99.90;;;24.02;57.65;101765.22;5114855;28;20078;-67
2022/09/05 07:25:20;;;;;;;8.18;5.70;;;23.40;99.90;;;24.11;56.18;101772.06;5115134;28;20503;-67
2022/09/05 07:27:54;;;;;;;10.35;5.55;;;23.60;99.90;;;24.17;55.19;101764.56;5114821;28;20113;-67
2022/09/05 07:30:50;;;;;;;9.93;5.35;;;23.70;99.90;;;24.12;56.35;101768.38;5114568;28;20067;-67
2022/09/05 07:33:21;;;;;;;7.32;5.03;;;23.60;99.90;;;24.03;54.04;101767.00;5114364;28;20043;-67
2022/09/05 07:35:51;;;;;;;10.82;5.05;;;23.50;99.90;;;24.03;56.47;101758.88;5114471;28;20494;-67
2022/09/05 07:38:24;;;;;;;7.40;4.80;;;23.50;99.90;;;23.80;55.46;101760.84;5114466;28;20036;-67
2022/09/05 07:41:23;;;;;;;8.15;4.75;;;23.30;99.90;;;23.65;55.73;101750.72;5114563;28;20070;-67
2022/09/05 07:43:58;;;;;;;7.57;5.03;;;23.20;99.90;;;23.51;57.17;101759.44;5114232;28;20078;-67
2022/09/05 07:46:32;;;;;;;9.93;5.72;;;23.00;99.90;;;23.44;58.53;101757.91;5114388;28;20067;-67
2022/09/05 07:49:06;;;;;;;10.93;5.05;;;22.90;99.90;;;23.54;57.34;101743.06;5114221;28;20075;-67
2022/09/05 07:51:36;;;;;;;8.90;5.03;;;23.10;99.90;;;23.76;56.51;101765.50;5112783;28;20116;-67
2022/09/05 07:54:28;;;;;;;9.73;4.60;;;23.30;99.90;;;24.13;55.37;101765.63;5114196;28;20047;-67
2022/09/05 07:57:21;;;;;;;8.43;5.10;;;23.60;99.90;;;24.42;53.71;101766.09;5114085;28;20035;-67
2022/09/05 08:00:08;;;;;;;6.88;4.90;;;24.00;99.90;;;23.95;53.60;101676.34;5114312;28;20044;-67
2022/09/05 08:02:58;;;;;;;9.70;5.03;;;24.10;99.90;;;24.65;53.09;101787.50;5112627;28;20051;-67
2022/09/05 08:05:36;;;;;;;7.10;4.50;;;24.20;99.90;;;23.30;52.04;101555.97;5113855;28;20089;-67
2022/09/05 08:08:09;;;;;;;11.45;4.90;;;24.40;99.90;;;24.86;50.95;101756.72;5113962;28;20036;-67
2022/09/05 08:10:44;;;;;;;8.25;4.28;;;24.50;99.90;;;25.34;51.11;101794.91;5112691;28;20071;-67
2022/09/05 08:13:51;;;;;;;9.65;4.88;;;24.90;99.90;;;25.49;50.88;101793.28;5113683;28;20130;-67
2022/09/05 08:16:24;;;;;;;6.72;4.63;;;25.10;99.90;;;25.52;49.06;101802.13;5113679;28;20044;-67
2022/09/05 08:19:06;;;;;;;7.65;4.30;;;25.20;99.90;;;25.51;49.13;101784.09;5113899;28;20050;-67
2022/09/05 08:21:41;;;;;;;5.65;4.25;;;25.30;99.90;;;25.44;49.67;101803.47;5113640;28;20075;-67
2022/09/05 08:24:19;;;;;;;6.75;4.50;;;25.20;99.90;;;25.15;49.57;101794.06;5112755;28;20112;-67
2022/09/05 08:26:51;;;;;;;6.47;4.63;;;24.90;99.90;;;25.04;50.06;101799.16;5113783;28;20048;-67
2022/09/05 08:29:30;;;;;;;11.55;4.97;;;24.80;99.90;;;24.97;50.71;101795.00;5114059;28;20051;-67
2022/09/05 08:32:07;;;;;;;9.95;4.72;;;24.70;99.90;;;24.88;51.61;101781.91;5113449;28;20100;-67
2022/09/05 08:34:43;;;;;;;12.57;5.32;;;24.60;99.90;;;24.87;52.05;101781.00;5113400;28;20146;-67
2022/09/05 08:37:19;;;;;;;7.43;4.70;;;24.50;99.90;;;25.09;53.02;101764.59;5113240;28;20092;-67
2022/09/05 08:39:52;;;;;;;8.35;5.38;;;24.80;99.90;;;25.35;51.15;101760.56;5113332;28;20035;-67
2022/09/05 08:42:48;;;;;;;13.70;4.95;;;25.10;99.90;;;25.71;50.58;101781.22;5113312;28;20058;-67
2022/09/05 08:45:42;;;;;;;6.65;4.72;;;25.20;99.90;;;26.22;49.41;101793.00;5112923;28;20078;-67
2022/09/05 08:48:55;;;;;;;7.53;4.07;;;25.70;99.90;;;26.50;47.63;101783.25;5113201;28;20130;-67
2022/09/05 08:51:36;;;;;;;8.98;3.90;;;26.20;99.90;;;26.47;47.18;101771.69;5113100;28;20072;-67
2022/09/05 08:54:32;;;;;;;10.40;4.45;;;26.20;99.90;;;26.45;47.60;101784.47;5113199;28;20044;-67
2022/09/05 08:57:12;;;;;;;9.40;3.72;;;26.00;99.90;;;26.52;47.42;101783.16;5113224;28;20349;-67
2022/09/05 08:59:45;;;;;;;8.00;3.60;;;26.10;99.90;;;26.57;46.95;101779.25;5113501;28;20123;-67
2022/09/05 09:02:54;;;;;;;9.63;4.85;;;26.20;99.90;;;26.73;45.92;101784.72;5113059;28;20130;-67
2022/09/05 09:06:15;;;;;;;8.18;4.28;;;26.30;99.90;;;26.60;46.46;101778.16;5113148;28;20044;-67
2022/09/05 09:09:13;;;;;;;6.00;4.00;;;26.30;99.90;;;26.87;47.01;101787.50;5113019;28;20069;-67
2022/09/05 09:11:50;;;;;;;4.72;3.92;;;26.50;99.90;;;26.95;46.40;101785.22;5112978;28;20071;-67
2022/09/05 09:14:49;;;;;;;8.02;4.10;;;26.60;99.90;;;26.79;45.95;101782.50;5111729;28;20040;-67
2022/09/05 09:17:34;;;;;;;9.70;3.83;;;26.40;99.90;;;26.71;46.53;101784.78;5113065;28;20048;-67
2022/09/05 09:20:25;;;;;;;9.07;3.90;;;26.40;99.90;;;26.76;47.78;101784.53;5112881;28;20051;-67
2022/09/05 09:23:01;;;;;;;7.47;3.80;;;26.40;99.90;;;26.70;47.73;101774.00;5112969;28;20063;-67
2022/09/05 09:25:41;;;;;;;8.20;4.00;;;26.40;99.90;;;26.68;48.58;101776.78;5112629;28;20043;-67
2022/09/05 09:28:50;;;;;;;10.68;4.30;;;26.30;99.90;;;27.05;46.01;101769.25;5112780;28;20070;-67
2022/09/05 09:31:37;;;;;;;6.47;3.50;;;26.60;99.90;;;27.25;45.73;101768.97;5111431;28;20047;-67
2022/09/05 09:34:47;;;;;;;7.25;4.07;;;26.80;99.90;;;27.24;45.07;101740.03;5113466;28;20732;-67
2022/09/05 09:38:01;;;;;;;6.40;4.13;;;27.00;99.90;;;27.43;44.82;101732.56;5116575;28;20131;-67
2022/09/05 09:41:32;;;;;;;6.55;3.17;;;27.20;99.90;;;27.69;44.39;101764.47;5116737;28;20100;-67
2022/09/05 09:45:02;;;;;;;6.00;3.70;;;27.40;99.90;;;27.71;43.10;101767.09;5116516;28;20105;-67
2022/09/05 09:48:36;;;;;;;6.60;3.88;;;27.30;99.90;;;28.01;43.08;101760.66;5115408;28;20092;-67
2022/09/05 09:51:39;;;;;;;4.88;3.28;;;27.60;99.90;;;28.10;42.61;101761.94;5104469;28;20090;-67
2022/09/05 09:54:55;;;;;;;6.70;3.55;;;27.80;99.90;;;28.35;42.60;101756.69;5116348;28;20119;-67
2022/09/05 09:58:11;;;;;;;6.05;3.63;;;27.90;99.90;;;28.58;43.29;101747.94;5115322;28;20056;-67
2022/09/05 10:00:50;;;;;;;7.32;3.55;;;28.20;99.90;;;28.62;42.34;101757.66;5109220;28;20120;-67
2022/09/05 10:03:57;;;;;;;7.45;3.22;;;28.40;99.90;;;28.67;42.40;101747.31;5116414;28;20067;-67
2022/09/05 10:07:53;;;;;;;9.45;3.30;;;28.30;99.90;;;28.41;42.44;101750.84;5116148;28;20135;-67
2022/09/05 10:11:11;;;;;;;8.02;3.33;;;28.10;99.90;;;28.21;43.08;101741.25;5099573;28;20596;-67
2022/09/05 10:14:55;;;;;;;5.65;3.22;;;27.80;99.90;;;28.51;43.60;101747.41;5116211;28;20047;-67
2022/09/05 10:17:42;;;;;;;5.72;3.28;;;28.10;99.90;;;28.34;43.86;101744.03;5098032;28;20104;-67
2022/09/05 10:20:55;;;;;;;7.72;3.45;;;27.90;99.90;;;28.09;43.24;101754.75;5116287;28;20093;-67
2022/09/05 10:24:31;;;;;;;5.57;3.25;;;27.70;99.90;;;27.83;43.31;101729.16;5115835;28;20560;-67
2022/09/05 10:27:25;;;;;;;6.40;3.05;;;27.50;99.90;;;27.97;43.01;101729.19;5116008;28;20489;-67
2022/09/05 10:30:07;;;;;;;5.88;2.75;;;27.60;99.90;;;28.02;43.46;101732.50;5115720;28;20043;-67
2022/09/05 10:32:55;;;;;;;4.50;3.35;;;27.60;99.90;;;27.99;44.49;101737.28;5115781;28;20048;-67
2022/09/05 10:35:49;;;;;;;6.63;3.50;;;27.50;99.90;;;28.05;44.09;101747.78;5115609;28;20047;-67
2022/09/05 10:38:25;;;;;;;4.88;3.40;;;27.60;99.90;;;27.95;42.41;101725.69;5115614;28;20036;-67
2022/09/05 10:40:55;;;;;;;5.93;3.38;;;27.50;99.90;;;28.13;43.34;101734.53;5114431;28;20493;-67
2022/09/05 10:43:50;;;;;;;18.10;3.55;;;27.60;99.90;;;28.32;42.74;101740.56;5115726;28;20146;-67
2022/09/05 10:46:32;;;;;;;5.65;3.15;;;27.90;99.90;;;28.25;42.33;101742.81;5114533;28;20159;-67
2022/09/05 10:49:23;;;;;;;9.63;3.60;;;27.80;99.90;;;28.35;42.52;101748.53;5115380;28;20488;-67
2022/09/05 10:52:02;;;;;;;7.63;3.58;;;27.90;99.90;;;28.37;43.47;101743.84;5115563;28;20039;-67
2022/09/05 10:55:08;;;;;;;15.35;3.70;;;27.90;99.90;;;28.41;42.37;101754.47;5115068;28;20420;-67
2022/09/05 10:57:58;;;;;;;9.80;3.78;;;28.10;99.90;;;28.35;43.43;101743.97;5115222;28;20401;-67
2022/09/05 11:01:00;;;;;;;5.88;3.30;;;27.90;99.90;;;28.48;41.33;101747.63;5115316;28;20459;-67
2022/09/05 11:03:53;;;;;;;10.02;3.88;;;28.10;99.90;;;28.80;42.01;101715.59;5115100;28;20044;-67
2022/09/05 11:06:43;;;;;;;6.22;3.05;;;28.40;99.90;;;29.33;40.52;101737.38;5115112;28;20048;-67
2022/09/05 11:09:35;;;;;;;7.97;3.22;;;28.90;99.90;;;29.15;41.37;101730.47;5115042;28;20048;-67
2022/09/05 11:12:21;;;;;;;5.80;3.13;;;28.80;99.90;;;29.26;42.48;101736.06;5115096;28;20139;-67
2022/09/05 11:14:52;;;;;;;4.45;3.28;;;28.90;99.90;;;29.67;41.37;101741.38;5114951;28;20401;-67
2022/09/05 11:17:30;;;;;;;8.35;3.40;;;29.20;99.90;;;29.52;40.06;101747.88;5113640;28;20047;-67
2022/09/05 11:20:32;;;;;;;10.07;3.47;;;29.20;99.90;;;29.50;41.70;101728.03;5114738;28;20048;-67
2022/09/05 11:23:09;;;;;;;3.72;2.80;;;29.10;99.90;;;29.60;39.81;101728.28;5113600;28;20496;-67
2022/09/05 11:25:39;;;;;;;8.13;3.20;;;29.20;99.90;;;29.95;40.40;101732.13;5114781;28;20046;-68
2022/09/05 11:28:16;;;;;;;5.75;2.55;;;29.50;99.90;;;30.01;39.03;101734.44;5114630;28;20044;-67
2022/09/05 11:30:52;;;;;;;3.67;2.80;;;29.70;99.90;;;29.58;38.94;101736.56;5114632;28;20096;-67
2022/09/05 11:33:52;;;;;;;4.18;2.75;;;29.30;99.90;;;29.86;40.45;101732.81;5114785;28;20050;-67
2022/09/05 11:36:46;;;;;;;5.30;2.83;;;29.40;99.90;;;30.07;39.24;101734.00;5114471;28;20225;-67
2022/09/05 11:40:31;;;;;;;10.48;2.90;;;29.70;99.90;;;29.89;38.86;101735.28;5114640;28;20071;-67
2022/09/05 11:43:53;;;;;;;6.60;2.78;;;29.60;99.90;;;29.99;39.83;101730.94;5114436;27;20499;-67
2022/09/05 11:46:47;;;;;;;5.15;2.70;;;29.70;99.90;;;30.35;39.03;101736.53;5114264;28;20039;-67
2022/09/05 11:50:09;;;;;;;6.15;2.60;;;29.90;99.90;;;30.44;39.19;101732.22;5114197;28;20092;-67
2022/09/05 11:53:17;;;;;;;6.40;2.75;;;30.00;99.90;;;30.65;38.62;101730.63;5114172;28;20059;-67
2022/09/05 11:56:30;;;;;;;8.02;2.70;;;30.20;99.90;;;30.88;39.57;101733.44;5114151;28;20155;-67